sensor_id;sensor_type;location;lat;lon;timestamp;pressure;altitude;pressure_sealevel;temperature;humidity
64739;BME280;51175;51.186;0.276;2022-07-29T00:00:18;101392.66;;;22.87;48.11
64739;BME280;51175;51.186;0.276;2022-07-29T00:00:49;101388.06;;;22.87;48.23
64739;BME280;51175;51.186;0.276;2022-07-29T00:01:19;101391.88;;;22.86;47.99
64739;BME280;51175;51.186;0.276;2022-07-29T00:01:50;101387.59;;;22.85;48.13
64739;BME280;51175;51.186;0.276;2022-07-29T00:02:22;101390.28;;;22.85;48.07
64739;BME280;51175;51.186;0.276;2022-07-29T00:02:52;101393.78;;;22.86;47.90
64739;BME280;51175;51.186;0.276;2022-07-29T00:03:23;101390.28;;;22.85;48.06
64739;BME280;51175;51.186;0.276;2022-07-29T00:03:53;101394.91;;;22.85;47.97
64739;BME280;51175;51.186;0.276;2022-07-29T00:04:24;101384.91;;;22.85;48.22
64739;BME280;51175;51.186;0.276;2022-07-29T00:04:54;101382.53;;;22.84;47.99
64739;BME280;51175;51.186;0.276;2022-07-29T00:05:24;101390.59;;;22.84;47.93
64739;BME280;51175;51.186;0.276;2022-07-29T00:05:55;101382.53;;;22.84;47.89
64739;BME280;51175;51.186;0.276;2022-07-29T00:06:25;101389.84;;;22.83;47.88
64739;BME280;51175;51.186;0.276;2022-07-29T00:06:56;101389.03;;;22.82;48.07
64739;BME280;51175;51.186;0.276;2022-07-29T00:07:26;101385.53;;;22.82;48.03
64739;BME280;51175;51.186;0.276;2022-07-29T00:07:56;101389.84;;;22.83;48.18
64739;BME280;51175;51.186;0.276;2022-07-29T00:08:28;101389.03;;;22.82;48.07
64739;BME280;51175;51.186;0.276;2022-07-29T00:08:58;101382.06;;;22.81;48.23
64739;BME280;51175;51.186;0.276;2022-07-29T00:09:29;101378.59;;;22.81;48.21
64739;BME280;51175;51.186;0.276;2022-07-29T00:10:00;101391.25;;;22.80;48.01
64739;BME280;51175;51.186;0.276;2022-07-29T00:10:30;101387.47;;;22.81;48.29
64739;BME280;51175;51.186;0.276;2022-07-29T00:11:01;101383.16;;;22.80;48.13
64739;BME280;51175;51.186;0.276;2022-07-29T00:11:31;101386.66;;;22.81;47.93
64739;BME280;51175;51.186;0.276;2022-07-29T00:12:02;101386.97;;;22.79;48.19
64739;BME280;51175;51.186;0.276;2022-07-29T00:12:32;101384.28;;;22.79;48.21
64739;BME280;51175;51.186;0.276;2022-07-29T00:13:03;101386.97;;;22.79;48.13
64739;BME280;51175;51.186;0.276;2022-07-29T00:13:33;101384.28;;;22.79;48.02
64739;BME280;51175;51.186;0.276;2022-07-29T00:14:04;101386.97;;;22.79;48.20
64739;BME280;51175;51.186;0.276;2022-07-29T00:14:35;101384.63;;;22.78;47.94
64739;BME280;51175;51.186;0.276;2022-07-29T00:15:05;101386.50;;;22.77;48.14
64739;BME280;51175;51.186;0.276;2022-07-29T00:15:36;101390.78;;;22.78;48.09
64739;BME280;51175;51.186;0.276;2022-07-29T00:16:06;101386.50;;;22.77;48.13
64739;BME280;51175;51.186;0.276;2022-07-29T00:16:37;101383.81;;;22.77;48.23
64739;BME280;51175;51.186;0.276;2022-07-29T00:17:07;101387.31;;;22.78;47.93
64739;BME280;51175;51.186;0.276;2022-07-29T00:17:38;101390.31;;;22.76;47.94
64739;BME280;51175;51.186;0.276;2022-07-29T00:18:09;101384.13;;;22.76;48.04
64739;BME280;51175;51.186;0.276;2022-07-29T00:18:39;101384.94;;;22.76;47.94
64739;BME280;51175;51.186;0.276;2022-07-29T00:19:10;101383.03;;;22.77;47.94
64739;BME280;51175;51.186;0.276;2022-07-29T00:19:40;101387.63;;;22.76;48.08
64739;BME280;51175;51.186;0.276;2022-07-29T00:20:10;101387.63;;;22.76;48.17
64739;BME280;51175;51.186;0.276;2022-07-29T00:20:41;101386.06;;;22.75;48.15
64739;BME280;51175;51.186;0.276;2022-07-29T00:21:11;101388.75;;;22.75;47.97
64739;BME280;51175;51.186;0.276;2022-07-29T00:21:42;101390.63;;;22.75;47.99
64739;BME280;51175;51.186;0.276;2022-07-29T00:22:12;101387.16;;;22.74;48.02
64739;BME280;51175;51.186;0.276;2022-07-29T00:22:43;101386.38;;;22.74;48.22
64739;BME280;51175;51.186;0.276;2022-07-29T00:23:13;101392.53;;;22.74;48.10
64739;BME280;51175;51.186;0.276;2022-07-29T00:23:44;101387.47;;;22.73;48.06
64739;BME280;51175;51.186;0.276;2022-07-29T00:24:14;101382.09;;;22.73;47.94
64739;BME280;51175;51.186;0.276;2022-07-29T00:24:44;101381.31;;;22.72;48.05
64739;BME280;51175;51.186;0.276;2022-07-29T00:25:16;101393.66;;;22.73;47.99
64739;BME280;51175;51.186;0.276;2022-07-29T00:25:47;101382.09;;;22.73;47.95
64739;BME280;51175;51.186;0.276;2022-07-29T00:26:17;101386.69;;;22.72;48.00
64739;BME280;51175;51.186;0.276;2022-07-29T00:26:48;101381.31;;;22.72;47.91
64739;BME280;51175;51.186;0.276;2022-07-29T00:27:18;101384.00;;;22.72;48.13
64739;BME280;51175;51.186;0.276;2022-07-29T00:27:49;101380.50;;;22.72;48.16
64739;BME280;51175;51.186;0.276;2022-07-29T00:28:19;101385.09;;;22.71;48.02
64739;BME280;51175;51.186;0.276;2022-07-29T00:28:49;101385.09;;;22.71;47.90
64739;BME280;51175;51.186;0.276;2022-07-29T00:29:20;101384.31;;;22.71;48.09
64739;BME280;51175;51.186;0.276;2022-07-29T00:29:50;101384.31;;;22.71;48.13
64739;BME280;51175;51.186;0.276;2022-07-29T00:30:21;101384.31;;;22.71;48.13
64739;BME280;51175;51.186;0.276;2022-07-29T00:30:51;101377.34;;;22.69;47.93
64739;BME280;51175;51.186;0.276;2022-07-29T00:31:22;101383.53;;;22.70;47.97
64739;BME280;51175;51.186;0.276;2022-07-29T00:31:52;101381.16;;;22.68;48.08
64739;BME280;51175;51.186;0.276;2022-07-29T00:32:22;101388.13;;;22.69;48.11
64739;BME280;51175;51.186;0.276;2022-07-29T00:32:53;101385.75;;;22.68;47.88
64739;BME280;51175;51.186;0.276;2022-07-29T00:33:23;101382.28;;;22.67;47.90
64739;BME280;51175;51.186;0.276;2022-07-29T00:33:54;101383.03;;;22.68;47.95
64739;BME280;51175;51.186;0.276;2022-07-29T00:34:25;101386.53;;;22.68;48.07
64739;BME280;51175;51.186;0.276;2022-07-29T00:35:14;101391.13;;;22.68;48.19
64739;BME280;51175;51.186;0.276;2022-07-29T00:36:03;101386.88;;;22.67;48.14
64739;BME280;51175;51.186;0.276;2022-07-29T00:36:33;101385.25;;;22.66;47.97
64739;BME280;51175;51.186;0.276;2022-07-29T00:37:04;101386.38;;;22.65;48.17
64739;BME280;51175;51.186;0.276;2022-07-29T00:37:34;101388.28;;;22.64;48.35
64739;BME280;51175;51.186;0.276;2022-07-29T00:38:05;101385.59;;;22.64;48.10
64739;BME280;51175;51.186;0.276;2022-07-29T00:38:35;101388.28;;;22.64;47.92
64739;BME280;51175;51.186;0.276;2022-07-29T00:39:05;101384.00;;;22.63;47.95
64739;BME280;51175;51.186;0.276;2022-07-29T00:39:36;101387.50;;;22.64;48.23
64739;BME280;51175;51.186;0.276;2022-07-29T00:40:07;101384.81;;;22.64;48.17
64739;BME280;51175;51.186;0.276;2022-07-29T00:40:38;101377.06;;;22.62;47.97
64739;BME280;51175;51.186;0.276;2022-07-29T00:41:09;101383.22;;;22.63;48.07
64739;BME280;51175;51.186;0.276;2022-07-29T00:41:39;101378.94;;;22.62;48.15
64739;BME280;51175;51.186;0.276;2022-07-29T00:42:09;101378.16;;;22.61;48.07
64739;BME280;51175;51.186;0.276;2022-07-29T00:42:48;101384.00;;;22.63;47.97
64739;BME280;51175;51.186;0.276;2022-07-29T00:43:19;101378.94;;;22.62;48.13
64739;BME280;51175;51.186;0.276;2022-07-29T00:43:50;101380.84;;;22.61;47.92
64739;BME280;51175;51.186;0.276;2022-07-29T00:44:20;101380.84;;;22.61;48.15
64739;BME280;51175;51.186;0.276;2022-07-29T00:44:50;101383.53;;;22.61;48.16
64739;BME280;51175;51.186;0.276;2022-07-29T00:45:21;101378.16;;;22.61;48.39
64739;BME280;51175;51.186;0.276;2022-07-29T00:45:52;101380.06;;;22.61;47.87
64739;BME280;51175;51.186;0.276;2022-07-29T00:46:22;101378.47;;;22.60;48.17
64739;BME280;51175;51.186;0.276;2022-07-29T00:46:53;101383.09;;;22.59;48.27
64739;BME280;51175;51.186;0.276;2022-07-29T00:47:23;101385.78;;;22.59;48.27
64739;BME280;51175;51.186;0.276;2022-07-29T00:47:54;101376.56;;;22.60;47.96
64739;BME280;51175;51.186;0.276;2022-07-29T00:48:24;101382.25;;;22.58;48.12
64739;BME280;51175;51.186;0.276;2022-07-29T00:48:54;101375.28;;;22.57;47.97
64739;BME280;51175;51.186;0.276;2022-07-29T00:49:25;101378.75;;;22.58;47.76
64739;BME280;51175;51.186;0.276;2022-07-29T00:49:55;101378.75;;;22.58;48.25
64739;BME280;51175;51.186;0.276;2022-07-29T00:50:26;101383.38;;;22.57;48.18
64739;BME280;51175;51.186;0.276;2022-07-29T00:50:57;101372.59;;;22.57;48.13
64739;BME280;51175;51.186;0.276;2022-07-29T00:51:28;101380.69;;;22.57;48.02
64739;BME280;51175;51.186;0.276;2022-07-29T00:52:01;101369.13;;;22.57;48.17
64739;BME280;51175;51.186;0.276;2022-07-29T00:52:33;101371.81;;;22.57;48.21
64739;BME280;51175;51.186;0.276;2022-07-29T00:53:06;101376.38;;;22.56;48.01
64739;BME280;51175;51.186;0.276;2022-07-29T00:53:37;101373.69;;;22.56;48.27
64739;BME280;51175;51.186;0.276;2022-07-29T00:54:08;101371.00;;;22.56;48.29
64739;BME280;51175;51.186;0.276;2022-07-29T00:54:39;101372.94;;;22.56;48.13
64739;BME280;51175;51.186;0.276;2022-07-29T00:55:13;101376.38;;;22.56;47.85
64739;BME280;51175;51.186;0.276;2022-07-29T00:55:44;101368.63;;;22.55;48.09
64739;BME280;51175;51.186;0.276;2022-07-29T00:56:14;101371.31;;;22.55;48.09
64739;BME280;51175;51.186;0.276;2022-07-29T00:56:44;101365.16;;;22.54;47.92
64739;BME280;51175;51.186;0.276;2022-07-29T00:57:15;101373.25;;;22.54;48.04
64739;BME280;51175;51.186;0.276;2022-07-29T00:57:46;101374.03;;;22.55;47.97
64739;BME280;51175;51.186;0.276;2022-07-29T00:58:16;101370.56;;;22.54;48.12
64739;BME280;51175;51.186;0.276;2022-07-29T00:58:48;101374.34;;;22.53;47.97
64739;BME280;51175;51.186;0.276;2022-07-29T00:59:20;101370.06;;;22.52;47.91
64739;BME280;51175;51.186;0.276;2022-07-29T00:59:51;101368.19;;;22.53;48.14
64739;BME280;51175;51.186;0.276;2022-07-29T01:00:25;101375.13;;;22.54;48.16
64739;BME280;51175;51.186;0.276;2022-07-29T01:00:55;101372.75;;;22.52;48.29
64739;BME280;51175;51.186;0.276;2022-07-29T01:01:27;101376.25;;;22.53;47.84
64739;BME280;51175;51.186;0.276;2022-07-29T01:01:58;101370.06;;;22.52;48.09
64739;BME280;51175;51.186;0.276;2022-07-29T01:02:31;101370.06;;;22.52;48.14
64739;BME280;51175;51.186;0.276;2022-07-29T01:03:01;101369.59;;;22.50;48.26
64739;BME280;51175;51.186;0.276;2022-07-29T01:03:31;101369.28;;;22.52;47.91
64739;BME280;51175;51.186;0.276;2022-07-29T01:04:02;101366.91;;;22.50;48.16
64739;BME280;51175;51.186;0.276;2022-07-29T01:04:33;101377.66;;;22.50;48.18
64739;BME280;51175;51.186;0.276;2022-07-29T01:05:04;101368.03;;;22.49;48.24
64739;BME280;51175;51.186;0.276;2022-07-29T01:05:36;101374.97;;;22.50;48.01
64739;BME280;51175;51.186;0.276;2022-07-29T01:06:06;101370.72;;;22.49;48.16
64739;BME280;51175;51.186;0.276;2022-07-29T01:06:37;101366.13;;;22.50;48.06
64739;BME280;51175;51.186;0.276;2022-07-29T01:07:07;101361.84;;;22.49;48.08
64739;BME280;51175;51.186;0.276;2022-07-29T01:07:38;101366.13;;;22.50;48.23
64739;BME280;51175;51.186;0.276;2022-07-29T01:08:11;101364.53;;;22.49;48.15
64739;BME280;51175;51.186;0.276;2022-07-29T01:08:43;101363.75;;;22.48;48.10
64739;BME280;51175;51.186;0.276;2022-07-29T01:09:15;101364.53;;;22.49;47.89
64739;BME280;51175;51.186;0.276;2022-07-29T01:09:46;101362.97;;;22.48;48.09
64739;BME280;51175;51.186;0.276;2022-07-29T01:10:18;101356.78;;;22.47;48.10
64739;BME280;51175;51.186;0.276;2022-07-29T01:10:50;101354.09;;;22.47;47.99
64739;BME280;51175;51.186;0.276;2022-07-29T01:11:21;101360.59;;;22.46;47.99
64739;BME280;51175;51.186;0.276;2022-07-29T01:11:52;101361.38;;;22.47;48.25
64739;BME280;51175;51.186;0.276;2022-07-29T01:12:26;101354.41;;;22.45;48.03
64739;BME280;51175;51.186;0.276;2022-07-29T01:12:58;101356.00;;;22.47;47.98
64739;BME280;51175;51.186;0.276;2022-07-29T01:13:30;101361.72;;;22.45;48.25
64739;BME280;51175;51.186;0.276;2022-07-29T01:14:01;101364.41;;;22.45;48.02
64739;BME280;51175;51.186;0.276;2022-07-29T01:14:32;101363.59;;;22.44;48.08
64739;BME280;51175;51.186;0.276;2022-07-29T01:15:05;101360.09;;;22.44;48.12
64739;BME280;51175;51.186;0.276;2022-07-29T01:15:44;101358.22;;;22.44;48.12
64739;BME280;51175;51.186;0.276;2022-07-29T01:16:31;101358.22;;;22.44;48.32
64739;BME280;51175;51.186;0.276;2022-07-29T01:17:08;101359.34;;;22.43;48.15
64739;BME280;51175;51.186;0.276;2022-07-29T01:17:42;101358.53;;;22.43;48.14
64739;BME280;51175;51.186;0.276;2022-07-29T01:18:18;101355.06;;;22.42;48.14
64739;BME280;51175;51.186;0.276;2022-07-29T01:18:56;101349.66;;;22.42;48.05
64739;BME280;51175;51.186;0.276;2022-07-29T01:26:09;101358.84;;;22.32;48.47
64739;BME280;51175;51.186;0.276;2022-07-29T01:26:57;101359.19;;;22.31;48.38
64739;BME280;51175;51.186;0.276;2022-07-29T01:27:41;101361.41;;;22.29;48.50
64739;BME280;51175;51.186;0.276;2022-07-29T01:29:16;101364.41;;;22.27;48.46
64739;BME280;51175;51.186;0.276;2022-07-29T01:29:55;101357.75;;;22.25;48.29
64739;BME280;51175;51.186;0.276;2022-07-29T01:30:28;101358.25;;;22.27;48.34
64739;BME280;51175;51.186;0.276;2022-07-29T01:31:00;101360.44;;;22.25;48.34
64739;BME280;51175;51.186;0.276;2022-07-29T01:31:45;101357.00;;;22.24;48.34
64739;BME280;51175;51.186;0.276;2022-07-29T01:32:24;101362.38;;;22.24;48.54
64739;BME280;51175;51.186;0.276;2022-07-29T01:33:02;101359.69;;;22.24;48.28
64739;BME280;51175;51.186;0.276;2022-07-29T01:33:39;101360.78;;;22.23;48.55
64739;BME280;51175;51.186;0.276;2022-07-29T01:34:27;101357.31;;;22.23;48.36
64739;BME280;51175;51.186;0.276;2022-07-29T01:35:06;101357.31;;;22.23;48.42
64739;BME280;51175;51.186;0.276;2022-07-29T01:35:39;101361.09;;;22.22;48.46
64739;BME280;51175;51.186;0.276;2022-07-29T01:36:14;101361.88;;;22.22;48.49
64739;BME280;51175;51.186;0.276;2022-07-29T01:37:01;101364.56;;;22.22;48.47
64739;BME280;51175;51.186;0.276;2022-07-29T01:38:27;101361.41;;;22.20;48.50
64739;BME280;51175;51.186;0.276;2022-07-29T01:39:09;101366.78;;;22.20;48.61
64739;BME280;51175;51.186;0.276;2022-07-29T01:39:42;101369.47;;;22.20;48.46
64739;BME280;51175;51.186;0.276;2022-07-29T01:40:24;101366.78;;;22.20;48.59
64739;BME280;51175;51.186;0.276;2022-07-29T01:41:03;101366.78;;;22.20;48.52
64739;BME280;51175;51.186;0.276;2022-07-29T01:41:38;101364.09;;;22.20;48.41
64739;BME280;51175;51.186;0.276;2022-07-29T01:42:15;101364.09;;;22.20;48.44
64739;BME280;51175;51.186;0.276;2022-07-29T01:42:55;101367.91;;;22.19;48.67
64739;BME280;51175;51.186;0.276;2022-07-29T01:43:37;101365.22;;;22.19;48.29
64739;BME280;51175;51.186;0.276;2022-07-29T01:44:12;101366.00;;;22.19;48.48
64739;BME280;51175;51.186;0.276;2022-07-29T01:45:00;101364.41;;;22.18;48.48
64739;BME280;51175;51.186;0.276;2022-07-29T01:45:56;101365.53;;;22.17;48.38
64739;BME280;51175;51.186;0.276;2022-07-29T01:46:33;101363.16;;;22.16;48.60
64739;BME280;51175;51.186;0.276;2022-07-29T01:47:10;101367.75;;;22.15;48.62
64739;BME280;51175;51.186;0.276;2022-07-29T01:47:58;101368.53;;;22.16;48.55
64739;BME280;51175;51.186;0.276;2022-07-29T01:48:41;101361.59;;;22.15;48.36
64739;BME280;51175;51.186;0.276;2022-07-29T01:49:27;101364.28;;;22.15;48.60
64739;BME280;51175;51.186;0.276;2022-07-29T01:49:59;101363.47;;;22.14;48.47
64739;BME280;51175;51.186;0.276;2022-07-29T01:50:38;101364.59;;;22.13;48.37
64739;BME280;51175;51.186;0.276;2022-07-29T01:51:23;101357.31;;;22.14;48.43
64739;BME280;51175;51.186;0.276;2022-07-29T01:52:05;101357.63;;;22.12;48.59
64739;BME280;51175;51.186;0.276;2022-07-29T01:52:43;101361.09;;;22.13;48.44
64739;BME280;51175;51.186;0.276;2022-07-29T01:53:31;101357.63;;;22.12;48.41
64739;BME280;51175;51.186;0.276;2022-07-29T01:54:29;101363.00;;;22.12;48.58
64739;BME280;51175;51.186;0.276;2022-07-29T01:55:04;101354.94;;;22.12;48.70
64739;BME280;51175;51.186;0.276;2022-07-29T01:55:44;101362.22;;;22.12;48.40
64739;BME280;51175;51.186;0.276;2022-07-29T01:56:16;101355.25;;;22.11;48.20
64739;BME280;51175;51.186;0.276;2022-07-29T01:56:51;101356.38;;;22.10;48.63
64739;BME280;51175;51.186;0.276;2022-07-29T01:57:27;101359.84;;;22.10;48.59
64739;BME280;51175;51.186;0.276;2022-07-29T01:57:59;101359.84;;;22.10;48.57
64739;BME280;51175;51.186;0.276;2022-07-29T01:58:31;101356.38;;;22.10;48.63
64739;BME280;51175;51.186;0.276;2022-07-29T01:59:04;101355.25;;;22.11;48.74
64739;BME280;51175;51.186;0.276;2022-07-29T01:59:37;101351.78;;;22.10;48.55
64739;BME280;51175;51.186;0.276;2022-07-29T02:00:08;101353.66;;;22.10;48.60
64739;BME280;51175;51.186;0.276;2022-07-29T02:00:40;101356.03;;;22.11;48.43
64739;BME280;51175;51.186;0.276;2022-07-29T02:01:13;101359.84;;;22.10;48.46
64739;BME280;51175;51.186;0.276;2022-07-29T02:01:45;101357.94;;;22.11;48.32
64739;BME280;51175;51.186;0.276;2022-07-29T02:02:18;101357.16;;;22.10;48.39
64739;BME280;51175;51.186;0.276;2022-07-29T02:02:50;101348.28;;;22.10;48.51
64739;BME280;51175;51.186;0.276;2022-07-29T02:03:23;101357.16;;;22.10;48.65
64739;BME280;51175;51.186;0.276;2022-07-29T02:03:54;101354.47;;;22.10;48.55
64739;BME280;51175;51.186;0.276;2022-07-29T02:04:28;101352.56;;;22.11;48.32
64739;BME280;51175;51.186;0.276;2022-07-29T02:05:00;101357.94;;;22.11;48.26
64739;BME280;51175;51.186;0.276;2022-07-29T02:05:33;101350.66;;;22.11;48.49
64739;BME280;51175;51.186;0.276;2022-07-29T02:06:05;101355.25;;;22.11;48.52
64739;BME280;51175;51.186;0.276;2022-07-29T02:06:40;101361.41;;;22.11;48.50
64739;BME280;51175;51.186;0.276;2022-07-29T02:07:17;101354.16;;;22.12;48.45
64739;BME280;51175;51.186;0.276;2022-07-29T02:07:49;101357.16;;;22.10;48.52
64739;BME280;51175;51.186;0.276;2022-07-29T02:08:21;101353.66;;;22.10;48.70
64739;BME280;51175;51.186;0.276;2022-07-29T02:08:52;101351.78;;;22.10;48.50
64739;BME280;51175;51.186;0.276;2022-07-29T02:09:25;101348.28;;;22.10;48.51
64739;BME280;51175;51.186;0.276;2022-07-29T02:09:57;101355.25;;;22.11;48.46
64739;BME280;51175;51.186;0.276;2022-07-29T02:10:31;101355.25;;;22.11;48.52
64739;BME280;51175;51.186;0.276;2022-07-29T02:11:04;101359.06;;;22.10;48.38
64739;BME280;51175;51.186;0.276;2022-07-29T02:11:36;101353.66;;;22.10;48.12
64739;BME280;51175;51.186;0.276;2022-07-29T02:12:08;101359.84;;;22.10;48.48
64739;BME280;51175;51.186;0.276;2022-07-29T02:12:42;101358.25;;;22.09;48.29
64739;BME280;51175;51.186;0.276;2022-07-29T02:13:14;101356.38;;;22.10;48.50
64739;BME280;51175;51.186;0.276;2022-07-29T02:13:46;101350.97;;;22.10;48.30
64739;BME280;51175;51.186;0.276;2022-07-29T02:14:18;101355.56;;;22.09;48.42
64739;BME280;51175;51.186;0.276;2022-07-29T02:14:51;101360.94;;;22.09;48.27
64739;BME280;51175;51.186;0.276;2022-07-29T02:15:24;101354.78;;;22.08;48.49
64739;BME280;51175;51.186;0.276;2022-07-29T02:15:58;101357.47;;;22.08;48.60
64739;BME280;51175;51.186;0.276;2022-07-29T02:16:30;101356.69;;;22.08;48.33
64739;BME280;51175;51.186;0.276;2022-07-29T02:17:03;101358.25;;;22.09;48.14
64739;BME280;51175;51.186;0.276;2022-07-29T02:17:44;101360.16;;;22.08;48.31
64739;BME280;51175;51.186;0.276;2022-07-29T02:18:17;101350.50;;;22.07;48.24
64739;BME280;51175;51.186;0.276;2022-07-29T02:18:51;101352.41;;;22.07;48.27
64739;BME280;51175;51.186;0.276;2022-07-29T02:19:26;101353.19;;;22.07;48.35
64739;BME280;51175;51.186;0.276;2022-07-29T02:20:00;101355.09;;;22.07;48.15
64739;BME280;51175;51.186;0.276;2022-07-29T02:20:32;101353.19;;;22.07;48.34
64739;BME280;51175;51.186;0.276;2022-07-29T02:21:04;101355.09;;;22.07;48.15
64739;BME280;51175;51.186;0.276;2022-07-29T02:21:35;101354.31;;;22.06;48.34
64739;BME280;51175;51.186;0.276;2022-07-29T02:22:06;101348.94;;;22.06;48.02
64739;BME280;51175;51.186;0.276;2022-07-29T02:22:39;101350.81;;;22.06;48.38
64739;BME280;51175;51.186;0.276;2022-07-29T02:23:12;101350.03;;;22.05;48.34
64739;BME280;51175;51.186;0.276;2022-07-29T02:23:44;101352.72;;;22.05;48.32
64739;BME280;51175;51.186;0.276;2022-07-29T02:24:16;101354.63;;;22.05;48.34
64739;BME280;51175;51.186;0.276;2022-07-29T02:24:48;101356.50;;;22.04;48.26
64739;BME280;51175;51.186;0.276;2022-07-29T02:25:22;101353.81;;;22.04;48.49
64739;BME280;51175;51.186;0.276;2022-07-29T02:25:56;101350.38;;;22.04;48.42
64739;BME280;51175;51.186;0.276;2022-07-29T02:26:27;101353.81;;;22.04;48.21
64739;BME280;51175;51.186;0.276;2022-07-29T02:27:00;101360.00;;;22.05;48.46
64739;BME280;51175;51.186;0.276;2022-07-29T02:27:34;101361.91;;;22.04;48.33
64739;BME280;51175;51.186;0.276;2022-07-29T02:28:06;101366.50;;;22.04;48.30
64739;BME280;51175;51.186;0.276;2022-07-29T02:28:39;101354.94;;;22.03;48.28
64739;BME280;51175;51.186;0.276;2022-07-29T02:29:11;101354.94;;;22.03;48.27
64739;BME280;51175;51.186;0.276;2022-07-29T02:29:42;101354.13;;;22.03;48.11
64739;BME280;51175;51.186;0.276;2022-07-29T02:30:15;101356.84;;;22.03;48.39
64739;BME280;51175;51.186;0.276;2022-07-29T02:30:46;101357.63;;;22.03;48.52
64739;BME280;51175;51.186;0.276;2022-07-29T02:31:20;101351.78;;;22.01;48.13
64739;BME280;51175;51.186;0.276;2022-07-29T02:31:52;101351.78;;;22.01;48.16
64739;BME280;51175;51.186;0.276;2022-07-29T02:32:25;101360.63;;;22.02;48.16
64739;BME280;51175;51.186;0.276;2022-07-29T02:32:57;101352.88;;;22.00;48.14
64739;BME280;51175;51.186;0.276;2022-07-29T02:33:29;101355.56;;;22.00;48.13
64739;BME280;51175;51.186;0.276;2022-07-29T02:34:02;101356.38;;;22.01;48.29
64739;BME280;51175;51.186;0.276;2022-07-29T02:34:34;101354.78;;;22.00;48.25
64739;BME280;51175;51.186;0.276;2022-07-29T02:35:07;101360.16;;;22.00;48.29
64739;BME280;51175;51.186;0.276;2022-07-29T02:35:40;101354.78;;;22.00;48.24
64739;BME280;51175;51.186;0.276;2022-07-29T02:36:11;101356.66;;;21.99;48.26
64739;BME280;51175;51.186;0.276;2022-07-29T02:36:43;101353.97;;;21.99;48.17
64739;BME280;51175;51.186;0.276;2022-07-29T02:37:16;101351.28;;;21.99;48.26
64739;BME280;51175;51.186;0.276;2022-07-29T02:37:47;101353.97;;;21.99;48.25
64739;BME280;51175;51.186;0.276;2022-07-29T02:38:41;101358.59;;;21.99;48.23
64739;BME280;51175;51.186;0.276;2022-07-29T02:39:22;101354.28;;;21.98;48.26
64739;BME280;51175;51.186;0.276;2022-07-29T02:39:57;101354.28;;;21.98;48.12
64739;BME280;51175;51.186;0.276;2022-07-29T02:40:28;101360.00;;;21.96;48.42
64739;BME280;51175;51.186;0.276;2022-07-29T02:41:01;101358.09;;;21.97;48.18
64739;BME280;51175;51.186;0.276;2022-07-29T02:41:40;101360.78;;;21.97;48.44
64739;BME280;51175;51.186;0.276;2022-07-29T02:42:13;101357.31;;;21.96;48.30
64739;BME280;51175;51.186;0.276;2022-07-29T02:42:46;101352.22;;;21.94;48.42
64739;BME280;51175;51.186;0.276;2022-07-29T02:43:17;101358.41;;;21.95;48.15
64739;BME280;51175;51.186;0.276;2022-07-29T02:43:54;101350.34;;;21.95;48.36
64739;BME280;51175;51.186;0.276;2022-07-29T02:45:58;101358.72;;;21.93;48.37
64739;BME280;51175;51.186;0.276;2022-07-29T02:46:31;101358.72;;;21.93;48.40
64739;BME280;51175;51.186;0.276;2022-07-29T02:48:14;101353.66;;;21.92;48.40
64739;BME280;51175;51.186;0.276;2022-07-29T02:49:09;101358.72;;;21.93;48.37
64739;BME280;51175;51.186;0.276;2022-07-29T02:50:04;101354.78;;;21.91;48.23
64739;BME280;51175;51.186;0.276;2022-07-29T02:50:48;101354.78;;;21.91;48.37
64739;BME280;51175;51.186;0.276;2022-07-29T02:51:26;101352.41;;;21.89;48.35
64739;BME280;51175;51.186;0.276;2022-07-29T02:52:00;101355.09;;;21.89;48.46
64739;BME280;51175;51.186;0.276;2022-07-29T02:52:37;101355.09;;;21.89;48.67
64739;BME280;51175;51.186;0.276;2022-07-29T02:53:22;101353.50;;;21.88;48.52
64739;BME280;51175;51.186;0.276;2022-07-29T02:53:56;101350.03;;;21.88;48.36
64739;BME280;51175;51.186;0.276;2022-07-29T02:55:23;101359.19;;;21.87;48.55
64739;BME280;51175;51.186;0.276;2022-07-29T02:55:56;101356.81;;;21.85;48.28
64739;BME280;51175;51.186;0.276;2022-07-29T02:56:29;101361.44;;;21.85;48.26
64739;BME280;51175;51.186;0.276;2022-07-29T02:57:11;101360.31;;;21.86;48.50
64739;BME280;51175;51.186;0.276;2022-07-29T02:57:49;101360.63;;;21.84;48.60
64739;BME280;51175;51.186;0.276;2022-07-29T02:58:30;101356.06;;;21.85;48.34
64739;BME280;51175;51.186;0.276;2022-07-29T02:59:03;101353.38;;;21.85;48.21
64739;BME280;51175;51.186;0.276;2022-07-29T02:59:36;101358.25;;;21.82;48.32
64739;BME280;51175;51.186;0.276;2022-07-29T03:00:08;101357.47;;;21.82;48.52
64739;BME280;51175;51.186;0.276;2022-07-29T03:00:40;101354.75;;;21.82;48.53
64739;BME280;51175;51.186;0.276;2022-07-29T03:01:14;101353.19;;;21.81;48.59
64739;BME280;51175;51.186;0.276;2022-07-29T03:01:45;101360.47;;;21.80;48.27
64739;BME280;51175;51.186;0.276;2022-07-29T03:02:16;101351.63;;;21.80;48.55
64739;BME280;51175;51.186;0.276;2022-07-29T03:02:51;101355.88;;;21.81;48.42
64739;BME280;51175;51.186;0.276;2022-07-29T03:03:25;101353.19;;;21.81;48.56
64739;BME280;51175;51.186;0.276;2022-07-29T03:04:01;101349.72;;;21.80;48.38
64739;BME280;51175;51.186;0.276;2022-07-29T03:04:34;101354.31;;;21.80;48.46
64739;BME280;51175;51.186;0.276;2022-07-29T03:05:06;101350.81;;;21.79;48.29
64739;BME280;51175;51.186;0.276;2022-07-29T03:05:39;101354.31;;;21.80;48.30
64739;BME280;51175;51.186;0.276;2022-07-29T03:06:10;101352.41;;;21.80;48.46
64739;BME280;51175;51.186;0.276;2022-07-29T03:06:43;101355.09;;;21.80;48.48
64739;BME280;51175;51.186;0.276;2022-07-29T03:07:18;101352.41;;;21.80;48.50
64739;BME280;51175;51.186;0.276;2022-07-29T03:07:56;101355.09;;;21.80;48.27